createdAt,value
2023-01-22T00:00:35.018Z,6.77
2023-01-22T00:03:04.316Z,7.00
2023-01-22T00:05:32.067Z,6.87
2023-01-22T00:07:59.800Z,6.37
2023-01-22T00:10:27.541Z,7.40
2023-01-22T00:12:55.261Z,6.97
2023-01-22T00:15:22.975Z,7.10
2023-01-22T00:17:50.776Z,7.30
2023-01-22T00:20:20.620Z,7.00
2023-01-22T00:22:48.547Z,7.30
2023-01-22T00:25:16.333Z,6.70
2023-01-22T00:27:44.215Z,7.30
2023-01-22T00:30:12.993Z,7.23
2023-01-22T00:32:40.710Z,6.57
2023-01-22T00:35:09.141Z,6.63
2023-01-22T00:37:38.274Z,6.70
2023-01-22T00:40:07.445Z,7.37
2023-01-22T00:42:35.207Z,6.30
2023-01-22T00:45:03.051Z,7.47
2023-01-22T00:47:31.121Z,7.73
2023-01-22T00:49:59.460Z,6.97
2023-01-22T00:52:27.207Z,6.93
2023-01-22T00:54:56.289Z,7.03
2023-01-22T00:57:24.080Z,6.67
2023-01-22T00:59:53.221Z,6.27
2023-01-22T01:02:20.982Z,6.97
2023-01-22T01:04:49.551Z,6.60
2023-01-22T01:07:17.335Z,6.53
2023-01-22T01:09:45.150Z,7.40
2023-01-22T01:12:14.247Z,6.20
2023-01-22T01:14:41.997Z,6.53
2023-01-22T01:17:09.766Z,6.77
2023-01-22T01:19:37.712Z,6.53
2023-01-22T01:22:06.299Z,6.57
2023-01-22T01:24:34.024Z,6.40
2023-01-22T01:27:01.773Z,6.33
2023-01-22T01:29:30.959Z,6.83
2023-01-22T01:31:58.753Z,6.43
2023-01-22T01:34:26.492Z,6.27
2023-01-22T01:36:54.353Z,6.40
2023-01-22T01:39:22.480Z,6.27
2023-01-22T01:41:50.435Z,6.37
2023-01-22T01:44:20.065Z,6.47
2023-01-22T01:46:52.601Z,6.00
2023-01-22T01:49:27.912Z,6.07
2023-01-22T01:51:58.922Z,6.40
2023-01-22T01:54:27.805Z,6.40
2023-01-22T01:57:01.549Z,6.30
2023-01-22T01:59:33.553Z,6.23
2023-01-22T02:02:04.325Z,7.40
2023-01-22T02:04:32.372Z,6.50
2023-01-22T02:07:00.250Z,6.90
2023-01-22T02:09:28.563Z,6.57
2023-01-22T02:11:56.338Z,8.27
2023-01-22T02:14:30.674Z,8.70
2023-01-22T02:17:07.162Z,8.37
2023-01-22T02:19:34.942Z,8.37
2023-01-22T02:22:04.162Z,8.90
2023-01-22T02:24:32.015Z,9.03
2023-01-22T02:26:59.782Z,8.30
2023-01-22T02:29:29.028Z,7.30
2023-01-22T02:31:56.927Z,7.17
2023-01-22T02:34:25.085Z,7.20
2023-01-22T02:36:53.586Z,7.07
2023-01-22T02:39:22.763Z,7.13
2023-01-22T02:41:50.653Z,7.50
2023-01-22T02:44:18.480Z,7.47
2023-01-22T02:46:46.336Z,7.90
2023-01-22T02:49:14.094Z,7.10
2023-01-22T02:51:41.826Z,7.03
2023-01-22T02:54:09.550Z,8.03
2023-01-22T02:56:38.666Z,7.37
2023-01-22T02:59:07.482Z,7.70
2023-01-22T03:01:35.307Z,7.80
2023-01-22T03:04:10.671Z,8.00
2023-01-22T03:06:40.568Z,7.73
2023-01-22T03:09:09.651Z,7.77
2023-01-22T03:11:40.995Z,8.07
2023-01-22T03:14:27.084Z,8.77
2023-01-22T03:17:12.979Z,8.20
2023-01-22T03:19:58.928Z,9.17
2023-01-22T03:22:27.008Z,8.50
2023-01-22T03:24:55.819Z,8.43
2023-01-22T03:27:26.790Z,7.60
2023-01-22T03:29:54.697Z,7.67
2023-01-22T03:32:22.866Z,7.10
2023-01-22T03:34:51.072Z,6.77
2023-01-22T03:37:18.801Z,7.73
2023-01-22T03:39:46.597Z,8.20
2023-01-22T03:42:14.339Z,7.87
2023-01-22T03:44:44.087Z,8.33
2023-01-22T03:47:11.866Z,7.63
2023-01-22T03:49:39.650Z,8.60
2023-01-22T03:52:07.378Z,8.87
2023-01-22T03:54:35.249Z,9.17
2023-01-22T03:57:02.990Z,9.20
2023-01-22T03:59:30.777Z,9.70
2023-01-22T04:01:59.874Z,9.50
2023-01-22T04:04:27.821Z,8.70
2023-01-22T04:06:55.629Z,7.77
2023-01-22T04:09:23.397Z,7.73
2023-01-22T04:11:51.139Z,8.57
2023-01-22T04:14:18.909Z,8.33
2023-01-22T04:16:46.729Z,9.17
2023-01-22T04:19:15.874Z,9.77
2023-01-22T04:21:43.641Z,11.50
2023-01-22T04:24:11.458Z,11.30
2023-01-22T04:26:39.229Z,11.63
2023-01-22T04:29:07.088Z,10.73
2023-01-22T04:31:34.943Z,9.73
2023-01-22T04:34:02.883Z,8.93
2023-01-22T04:36:31.978Z,10.10
2023-01-22T04:38:59.742Z,9.83
2023-01-22T04:41:27.462Z,9.97
2023-01-22T04:43:55.211Z,10.60
2023-01-22T04:49:03.991Z,11.30
2023-01-22T04:51:33.051Z,9.87
2023-01-22T04:54:00.732Z,9.73
2023-01-22T04:56:28.491Z,9.67
2023-01-22T04:58:56.198Z,10.83
2023-01-22T05:01:23.946Z,9.87
2023-01-22T05:03:51.667Z,9.67
2023-01-22T05:06:19.456Z,9.40
2023-01-22T05:08:48.513Z,8.33
2023-01-22T05:11:16.207Z,8.10
2023-01-22T05:13:44.115Z,8.20
2023-01-22T05:16:11.855Z,8.50
2023-01-22T05:18:39.579Z,8.57
2023-01-22T05:21:07.430Z,8.83
2023-01-22T05:23:35.127Z,8.67
2023-01-22T05:26:04.282Z,9.27
2023-01-22T05:28:32.006Z,9.27
2023-01-22T05:30:59.800Z,11.33
2023-01-22T05:33:29.740Z,10.67
2023-01-22T05:35:58.376Z,11.10
2023-01-22T05:38:26.380Z,10.97
2023-01-22T05:40:54.197Z,10.30
2023-01-22T05:43:23.842Z,9.00
2023-01-22T05:45:51.566Z,9.50
2023-01-22T05:48:19.422Z,9.37
2023-01-22T05:50:47.182Z,8.70
2023-01-22T05:53:14.899Z,8.57
2023-01-22T05:55:42.627Z,7.93
2023-01-22T05:58:10.446Z,8.10
2023-01-22T06:00:39.536Z,8.43
2023-01-22T06:03:07.232Z,8.17
2023-01-22T06:05:34.998Z,8.57
2023-01-22T06:08:02.877Z,7.97
2023-01-22T06:10:30.570Z,7.90
2023-01-22T06:12:58.278Z,8.00
2023-01-22T06:15:25.997Z,9.10
2023-01-22T06:17:55.077Z,8.93
2023-01-22T06:20:22.884Z,8.57
2023-01-22T06:22:52.133Z,9.40
2023-01-22T06:25:19.832Z,8.90
2023-01-22T06:27:47.556Z,8.97
2023-01-22T06:30:15.546Z,9.10
2023-01-22T06:32:43.288Z,8.17
2023-01-22T06:35:12.497Z,8.80
2023-01-22T06:37:40.185Z,8.67
2023-01-22T06:40:09.109Z,8.93
2023-01-22T06:42:37.953Z,9.40
2023-01-22T06:45:06.674Z,8.80
2023-01-22T06:47:34.513Z,8.63
2023-01-22T06:50:02.592Z,8.47
2023-01-22T06:52:32.912Z,7.83
2023-01-22T06:55:00.585Z,8.57
2023-01-22T06:57:28.692Z,8.50
2023-01-22T06:59:56.378Z,8.70
2023-01-22T07:02:24.055Z,8.67
2023-01-22T07:04:51.881Z,8.43
2023-01-22T07:07:19.733Z,8.87
2023-01-22T07:09:48.767Z,8.10
2023-01-22T07:12:16.571Z,9.10
2023-01-22T07:14:44.314Z,8.60
2023-01-22T07:17:12.064Z,8.80
2023-01-22T07:19:40.049Z,8.70
2023-01-22T07:22:07.757Z,8.83
2023-01-22T07:24:35.458Z,8.00
2023-01-22T07:27:04.896Z,7.80
2023-01-22T07:29:32.612Z,8.93
2023-01-22T07:32:00.458Z,8.40
2023-01-22T07:34:28.342Z,8.10
2023-01-22T07:36:56.053Z,8.43
2023-01-22T07:39:23.742Z,8.23
2023-01-22T07:41:51.489Z,7.83
2023-01-22T07:44:20.528Z,7.83
2023-01-22T07:46:48.273Z,8.40
2023-01-22T07:49:16.103Z,8.43
2023-01-22T07:51:43.844Z,8.97
2023-01-22T07:54:11.594Z,9.70
2023-01-22T07:56:39.401Z,9.03
2023-01-22T07:59:07.144Z,9.27
2023-01-22T08:01:36.282Z,9.53
2023-01-22T08:04:04.243Z,13.00
2023-01-22T08:06:31.950Z,11.67
2023-01-22T08:09:00.022Z,11.43
2023-01-22T08:11:28.499Z,13.00
2023-01-22T08:13:56.237Z,14.30
2023-01-22T08:16:24.006Z,15.03
2023-01-22T08:18:53.832Z,14.27
2023-01-22T08:21:21.640Z,12.77
2023-01-22T08:23:49.504Z,13.63
2023-01-22T08:26:17.364Z,13.53
2023-01-22T08:28:45.129Z,12.27
2023-01-22T08:31:26.467Z,10.97
2023-01-22T08:33:58.661Z,12.40
2023-01-22T08:36:34.344Z,11.80
2023-01-22T08:39:02.095Z,11.50
2023-01-22T08:41:29.766Z,12.47
2023-01-22T08:43:57.457Z,16.10
2023-01-22T08:46:25.260Z,14.13
2023-01-22T08:48:52.963Z,13.60
2023-01-22T08:51:23.491Z,14.20
2023-01-22T08:53:51.874Z,13.20
2023-01-22T08:56:19.577Z,13.73
2023-01-22T08:58:49.857Z,12.53
2023-01-22T09:01:18.821Z,12.30
2023-01-22T09:03:46.582Z,12.67
2023-01-22T09:06:14.257Z,12.73
2023-01-22T09:08:43.319Z,12.70
2023-01-22T09:11:11.141Z,12.83
2023-01-22T09:13:38.844Z,12.53
2023-01-22T09:16:10.813Z,12.23
2023-01-22T09:18:39.027Z,12.03
2023-01-22T09:21:06.956Z,12.10
2023-01-22T09:23:34.804Z,11.97
2023-01-22T09:26:04.131Z,12.50
2023-01-22T09:28:31.882Z,12.30
2023-01-22T09:30:59.779Z,12.67
2023-01-22T09:33:27.496Z,12.40
2023-01-22T09:35:55.169Z,13.37
2023-01-22T09:38:23.020Z,13.30
2023-01-22T09:40:54.840Z,13.57
2023-01-22T09:43:32.771Z,13.23
2023-01-22T09:46:04.092Z,13.23
2023-01-22T09:48:38.178Z,11.73
2023-01-22T09:51:07.115Z,10.30
2023-01-22T09:53:35.691Z,10.47
2023-01-22T09:56:07.022Z,9.83
2023-01-22T09:58:37.128Z,10.27
2023-01-22T10:01:07.069Z,9.70
2023-01-22T10:03:38.951Z,8.73
2023-01-22T10:06:11.392Z,9.00
2023-01-22T10:08:53.349Z,10.30
2023-01-22T10:11:21.532Z,9.70
2023-01-22T10:13:52.707Z,9.37
2023-01-22T10:16:20.467Z,9.00
2023-01-22T10:18:56.486Z,9.57
2023-01-22T10:21:26.602Z,10.47
2023-01-22T10:23:56.193Z,10.00
2023-01-22T10:26:33.687Z,12.03
2023-01-22T10:29:06.923Z,9.37
2023-01-22T10:31:36.982Z,12.70
2023-01-22T10:34:11.375Z,15.07
2023-01-22T10:36:39.206Z,27.87
2023-01-22T10:39:11.302Z,20.50
2023-01-22T10:41:39.047Z,12.60
2023-01-22T10:44:19.852Z,14.40
2023-01-22T10:46:49.698Z,13.20
2023-01-22T10:49:21.868Z,19.80
2023-01-22T10:51:55.245Z,24.27
2023-01-22T10:54:28.820Z,15.70
2023-01-22T10:57:06.465Z,13.30
2023-01-22T10:59:38.359Z,18.00
2023-01-22T11:02:15.881Z,13.27
2023-01-22T11:04:43.679Z,28.43
2023-01-22T11:07:16.014Z,13.23
2023-01-22T11:09:50.058Z,12.63
2023-01-22T11:12:21.802Z,12.53
2023-01-22T11:15:12.134Z,20.70
2023-01-22T11:17:45.007Z,13.90
2023-01-22T11:20:19.151Z,14.10
2023-01-22T11:22:55.578Z,12.50
2023-01-22T11:25:23.813Z,10.77
2023-01-22T11:28:03.481Z,10.67
2023-01-22T11:30:56.885Z,14.23
2023-01-22T11:33:41.178Z,11.60
2023-01-22T11:36:17.038Z,11.03
2023-01-22T11:38:51.277Z,10.20
2023-01-22T11:41:42.702Z,10.37
2023-01-22T11:44:39.142Z,10.60
2023-01-22T11:47:29.133Z,10.07
2023-01-22T11:50:11.589Z,9.10
2023-01-22T11:52:49.003Z,10.27
2023-01-22T11:55:29.635Z,10.10
2023-01-22T11:58:11.217Z,10.20
2023-01-22T12:00:45.782Z,11.13
2023-01-22T12:03:56.267Z,19.47
2023-01-22T12:06:36.908Z,12.87
2023-01-22T12:09:12.391Z,10.13
2023-01-22T12:11:57.431Z,10.70
2023-01-22T12:14:38.111Z,10.13
2023-01-22T12:17:18.335Z,12.53
2023-01-22T12:20:12.052Z,12.20
2023-01-22T12:22:45.455Z,10.77
2023-01-22T12:25:19.116Z,9.93
2023-01-22T12:27:52.402Z,10.77
2023-01-22T12:30:24.567Z,10.57
2023-01-22T12:32:58.146Z,10.20
2023-01-22T12:35:30.100Z,10.80
2023-01-22T12:38:10.055Z,10.93
2023-01-22T12:41:09.147Z,11.77
2023-01-22T12:43:43.139Z,11.37
2023-01-22T12:46:19.436Z,12.40
2023-01-22T12:48:53.184Z,10.33
2023-01-22T12:51:27.645Z,10.70
2023-01-22T12:53:56.715Z,10.73
2023-01-22T12:56:32.423Z,10.37
2023-01-22T12:59:00.851Z,12.00
2023-01-22T13:01:35.336Z,10.30
2023-01-22T13:04:05.852Z,11.43
2023-01-22T13:06:36.995Z,9.73
2023-01-22T13:09:08.110Z,10.23
2023-01-22T13:11:37.469Z,9.93
2023-01-22T13:14:17.877Z,10.63
2023-01-22T13:16:53.596Z,10.00
2023-01-22T13:19:24.479Z,10.27
2023-01-22T13:21:53.492Z,9.80
2023-01-22T13:24:22.972Z,9.70
2023-01-22T13:26:54.225Z,9.67
2023-01-22T13:29:27.010Z,10.13
2023-01-22T13:31:58.026Z,10.80
2023-01-22T13:34:26.666Z,10.23
2023-01-22T13:36:58.215Z,11.50
2023-01-22T13:39:29.788Z,11.60
2023-01-22T13:41:59.629Z,11.10
2023-01-22T13:44:36.898Z,11.37
2023-01-22T13:47:05.625Z,11.83
2023-01-22T13:49:35.733Z,11.00
2023-01-22T13:52:07.075Z,12.57
2023-01-22T13:54:42.593Z,13.00
2023-01-22T13:57:14.007Z,11.87
2023-01-22T13:59:41.786Z,14.70
2023-01-22T14:02:19.874Z,15.03
2023-01-22T14:04:48.778Z,12.03
2023-01-22T14:07:25.163Z,12.97
2023-01-22T14:09:55.092Z,13.13
2023-01-22T14:12:25.308Z,11.23
2023-01-22T14:14:53.728Z,11.90
2023-01-22T14:17:26.490Z,12.53
2023-01-22T14:19:54.360Z,9.87
2023-01-22T14:22:22.943Z,13.43
2023-01-22T14:24:52.569Z,12.33
2023-01-22T14:27:22.677Z,10.80
2023-01-22T14:29:50.479Z,11.67
2023-01-22T14:32:18.210Z,11.50
2023-01-22T14:34:45.912Z,11.00
2023-01-22T14:37:16.548Z,11.60
2023-01-22T14:39:46.813Z,9.63
2023-01-22T14:42:14.508Z,10.20
2023-01-22T14:44:43.594Z,11.83
2023-01-22T14:47:11.348Z,10.57
2023-01-22T14:49:40.683Z,9.50
2023-01-22T14:52:08.435Z,15.10
2023-01-22T14:54:36.117Z,14.50
2023-01-22T14:57:04.203Z,10.80
2023-01-22T14:59:31.924Z,11.27
2023-01-22T15:02:01.078Z,12.67
2023-01-22T15:04:28.838Z,12.03
2023-01-22T15:06:56.616Z,11.53
2023-01-22T15:09:24.405Z,10.53
2023-01-22T15:11:52.116Z,10.90
2023-01-22T15:14:19.897Z,11.83
2023-01-22T15:16:47.682Z,13.50
2023-01-22T15:19:18.421Z,15.47
2023-01-22T15:21:46.701Z,15.30
2023-01-22T15:24:14.813Z,15.67
2023-01-22T15:26:42.823Z,15.70
2023-01-22T15:29:13.017Z,13.63
2023-01-22T15:31:41.068Z,13.50
2023-01-22T15:34:08.903Z,12.97
2023-01-22T15:36:40.524Z,13.47
2023-01-22T15:39:08.717Z,13.30
2023-01-22T15:41:38.085Z,13.50
2023-01-22T15:44:07.373Z,12.57
2023-01-22T15:46:37.379Z,13.33
2023-01-22T15:49:08.131Z,12.60
2023-01-22T15:51:38.075Z,13.20
2023-01-22T15:54:07.715Z,13.13
2023-01-22T15:56:37.093Z,13.77
2023-01-22T15:59:05.614Z,14.07
2023-01-22T16:01:33.673Z,12.50
2023-01-22T16:04:03.011Z,13.53
2023-01-22T16:06:32.600Z,12.40
2023-01-22T16:09:03.843Z,12.53
2023-01-22T16:11:32.900Z,12.53
2023-01-22T16:14:01.389Z,13.03
2023-01-22T16:16:31.952Z,12.80
2023-01-22T16:19:00.822Z,13.13
2023-01-22T16:21:29.111Z,12.50
2023-01-22T16:23:59.430Z,13.47
2023-01-22T16:26:31.184Z,14.67
2023-01-22T16:29:01.146Z,13.87
2023-01-22T16:31:30.624Z,13.37
2023-01-22T16:34:00.648Z,14.37
2023-01-22T16:36:32.478Z,14.47
2023-01-22T16:39:01.725Z,13.20
2023-01-22T16:41:32.270Z,13.93
2023-01-22T16:44:01.673Z,15.43
2023-01-22T16:46:31.255Z,14.93
2023-01-22T16:49:01.511Z,14.97
2023-01-22T16:51:44.243Z,14.87
2023-01-22T16:54:19.492Z,13.20
2023-01-22T16:56:49.346Z,14.33
2023-01-22T16:59:18.031Z,14.23
2023-01-22T17:01:45.831Z,15.37
2023-01-22T17:04:13.666Z,15.37
2023-01-22T17:06:43.651Z,15.87
2023-01-22T17:09:14.504Z,14.47
2023-01-22T17:11:43.468Z,16.07
2023-01-22T17:14:12.549Z,14.30
2023-01-22T17:16:40.267Z,14.57
2023-01-22T17:19:08.073Z,14.80
2023-01-22T17:21:35.834Z,14.93
2023-01-22T17:24:04.882Z,15.60
2023-01-22T17:26:32.677Z,15.23
2023-01-22T17:29:00.409Z,17.80
2023-01-22T17:31:31.449Z,16.23
2023-01-22T17:33:59.308Z,16.10
2023-01-22T17:36:28.360Z,15.63
2023-01-22T17:38:57.406Z,13.50
2023-01-22T17:41:26.988Z,13.13
2023-01-22T17:43:55.996Z,14.10
2023-01-22T17:46:26.305Z,14.33
2023-01-22T17:48:56.310Z,13.90
2023-01-22T17:51:26.785Z,12.70
2023-01-22T17:53:56.096Z,12.87
2023-01-22T17:56:26.208Z,12.83
2023-01-22T17:58:56.350Z,14.70
2023-01-22T18:01:27.883Z,13.47
2023-01-22T18:03:59.161Z,12.73
2023-01-22T18:06:27.463Z,10.97
2023-01-22T18:08:55.877Z,11.93
2023-01-22T18:11:27.782Z,12.13
2023-01-22T18:13:56.576Z,11.87
2023-01-22T18:16:26.290Z,12.83
2023-01-22T18:18:54.514Z,12.90
2023-01-22T18:21:23.862Z,11.90
2023-01-22T18:23:54.653Z,12.47
2023-01-22T18:26:23.876Z,13.97
2023-01-22T18:28:52.441Z,18.43
2023-01-22T18:31:22.330Z,18.53
2023-01-22T18:33:50.713Z,18.87
2023-01-22T18:36:22.485Z,16.37
2023-01-22T18:38:52.007Z,15.77
2023-01-22T18:41:23.774Z,14.97
2023-01-22T18:43:54.677Z,14.60
2023-01-22T18:46:24.496Z,13.73
2023-01-22T18:48:54.878Z,13.83
2023-01-22T18:51:24.160Z,14.30
2023-01-22T18:53:53.510Z,14.60
2023-01-22T18:56:21.891Z,15.33
2023-01-22T18:58:49.790Z,14.53
2023-01-22T19:01:19.961Z,13.33
2023-01-22T19:03:50.288Z,13.10
2023-01-22T19:06:19.583Z,13.37
2023-01-22T19:08:50.022Z,13.73
2023-01-22T19:11:19.157Z,12.80
2023-01-22T19:13:47.631Z,13.13
2023-01-22T19:16:17.025Z,12.20
2023-01-22T19:18:46.596Z,12.33
2023-01-22T19:21:16.409Z,13.93
2023-01-22T19:23:46.456Z,13.07
2023-01-22T19:26:16.543Z,13.07
2023-01-22T19:28:45.732Z,14.23
2023-01-22T19:31:18.522Z,12.53
2023-01-22T19:33:46.406Z,13.60
2023-01-22T19:36:14.886Z,12.90
2023-01-22T19:38:42.607Z,13.33
2023-01-22T19:41:10.508Z,13.03
2023-01-22T19:43:38.485Z,13.63
2023-01-22T19:46:09.891Z,12.90
2023-01-22T19:48:38.994Z,13.00
2023-01-22T19:51:09.036Z,13.10
2023-01-22T19:53:37.617Z,13.30
2023-01-22T19:56:06.142Z,13.03
2023-01-22T19:58:33.861Z,13.60
2023-01-22T20:01:01.629Z,14.03
2023-01-22T20:03:30.836Z,12.73
2023-01-22T20:05:58.546Z,13.70
2023-01-22T20:08:26.274Z,12.77
2023-01-22T20:10:59.818Z,13.03
2023-01-22T20:13:29.600Z,13.40
2023-01-22T20:15:58.670Z,13.33
2023-01-22T20:18:27.995Z,13.10
2023-01-22T20:20:58.591Z,13.63
2023-01-22T20:23:27.783Z,13.97
2023-01-22T20:25:56.620Z,16.43
2023-01-22T20:28:24.738Z,18.33
2023-01-22T20:30:58.369Z,23.03
2023-01-22T20:33:26.717Z,25.83
2023-01-22T20:35:57.881Z,30.83
2023-01-22T20:38:26.567Z,23.13
2023-01-22T20:40:55.131Z,20.17
2023-01-22T20:43:22.869Z,21.23
2023-01-22T20:45:59.747Z,21.83
2023-01-22T20:48:28.115Z,27.93
2023-01-22T20:50:57.246Z,29.20
2023-01-22T20:53:25.553Z,26.33
2023-01-22T20:56:00.591Z,23.70
2023-01-22T20:58:29.021Z,22.30
2023-01-22T21:00:57.202Z,20.43
2023-01-22T21:03:25.223Z,19.17
2023-01-22T21:05:52.958Z,19.10
2023-01-22T21:08:22.106Z,18.60
2023-01-22T21:10:57.504Z,17.37
2023-01-22T21:13:25.952Z,17.53
2023-01-22T21:15:54.352Z,16.40
2023-01-22T21:18:23.061Z,16.77
2023-01-22T21:20:51.168Z,15.90
2023-01-22T21:23:18.866Z,16.13
2023-01-22T21:25:47.978Z,16.30
2023-01-22T21:28:15.753Z,16.80
2023-01-22T21:30:43.583Z,15.73
2023-01-22T21:33:11.325Z,17.73
2023-01-22T21:35:39.036Z,18.53
2023-01-22T21:38:06.770Z,18.13
2023-01-22T21:40:34.494Z,22.77
2023-01-22T21:43:21.111Z,23.27
2023-01-22T21:46:06.506Z,23.70
2023-01-22T21:48:35.127Z,19.20
2023-01-22T21:51:03.524Z,20.43
2023-01-22T21:53:31.309Z,20.13
2023-01-22T21:55:59.102Z,18.57
2023-01-22T21:58:28.437Z,19.00
2023-01-22T22:00:56.606Z,20.27
2023-01-22T22:03:24.384Z,20.87
2023-01-22T22:05:56.537Z,21.13
2023-01-22T22:08:24.281Z,22.37
2023-01-22T22:10:52.121Z,20.47
2023-01-22T22:13:20.171Z,22.87
2023-01-22T22:15:49.621Z,22.57
2023-01-22T22:18:17.371Z,23.03
2023-01-22T22:20:45.093Z,20.13
2023-01-22T22:23:12.782Z,19.33
2023-01-22T22:25:40.460Z,19.37
2023-01-22T22:28:08.179Z,18.50
2023-01-22T22:30:35.993Z,17.07
2023-01-22T22:33:05.171Z,17.23
2023-01-22T22:35:33.001Z,17.33
2023-01-22T22:38:00.706Z,17.40
2023-01-22T22:40:28.369Z,17.37
2023-01-22T22:42:56.161Z,16.17
2023-01-22T22:45:23.965Z,16.17
2023-01-22T22:47:51.745Z,17.27
2023-01-22T22:50:21.556Z,18.37
2023-01-22T22:52:49.376Z,16.20
2023-01-22T22:55:17.264Z,15.87
2023-01-22T22:57:44.999Z,15.47
2023-01-22T23:00:14.544Z,16.13
2023-01-22T23:02:42.683Z,13.57
2023-01-22T23:05:10.790Z,14.60
2023-01-22T23:07:39.904Z,14.40
2023-01-22T23:10:28.591Z,14.60
2023-01-22T23:12:57.725Z,14.67
2023-01-22T23:15:27.314Z,14.17
2023-01-22T23:17:55.897Z,13.83
2023-01-22T23:20:24.750Z,14.53
2023-01-22T23:22:56.561Z,14.10
2023-01-22T23:25:25.288Z,14.80
2023-01-22T23:27:53.127Z,13.30
2023-01-22T23:30:21.414Z,14.77
2023-01-22T23:32:49.301Z,14.07
2023-01-22T23:35:17.254Z,14.33
2023-01-22T23:37:45.000Z,14.30
2023-01-22T23:40:14.665Z,13.73
2023-01-22T23:42:42.463Z,14.00
2023-01-22T23:45:11.970Z,15.07
2023-01-22T23:47:39.837Z,14.10
2023-01-22T23:50:08.685Z,14.40
2023-01-22T23:52:36.912Z,13.40
2023-01-22T23:55:05.206Z,14.53
2023-01-22T23:57:34.401Z,13.87
